Crissiumal, Brazil
Current Conditions -  °F | °C
As of 8:00 AM on Thursday 29 Jan 2015 (Local Time) from SBCH Reporting Station
Scattered Clouds Scattered Clouds  
Wind Chill: 72°   Ceiling: Unl
Heat Index: 72°   Visibility: 6mi
Dew Point: 66°   Wind: 9mph
Humidity: 83%   Direction: 350°N
Pressure: 29.91"   Gusts: NA
Location:  27.5°S, 54.1°W
Report Text: SBCH 291000Z 35008KT 9999 FEW015 SCT020 22/19 Q1013
Loading
Personal Weather Stations






























Interactive Weather Map New forecast layout! Learn more

10-Day Weather Forecast

Advertisements
Track Severe Weather on mobile